sensor_id;sensor_type;location;lat;lon;timestamp;P1;durP1;ratioP1;P2;durP2;ratioP2
34924;SDS011;21130;51.728;8.748;2022-07-09T00:01:15;9.32;;;5.60;;
34924;SDS011;21130;51.728;8.748;2022-07-09T00:03:41;6.38;;;4.93;;
34924;SDS011;21130;51.728;8.748;2022-07-09T00:06:06;9.55;;;5.75;;
34924;SDS011;21130;51.728;8.748;2022-07-09T00:08:31;6.18;;;5.07;;
34924;SDS011;21130;51.728;8.748;2022-07-09T00:10:57;6.63;;;5.05;;
34924;SDS011;21130;51.728;8.748;2022-07-09T00:13:23;7.50;;;5.47;;
34924;SDS011;21130;51.728;8.748;2022-07-09T00:15:48;6.57;;;5.60;;
34924;SDS011;21130;51.728;8.748;2022-07-09T00:18:15;7.15;;;5.13;;
34924;SDS011;21130;51.728;8.748;2022-07-09T00:20:40;6.95;;;5.30;;
34924;SDS011;21130;51.728;8.748;2022-07-09T00:23:05;7.68;;;5.38;;
34924;SDS011;21130;51.728;8.748;2022-07-09T00:25:31;7.10;;;6.05;;
34924;SDS011;21130;51.728;8.748;2022-07-09T00:27:56;7.13;;;4.68;;
34924;SDS011;21130;51.728;8.748;2022-07-09T00:30:21;8.40;;;6.20;;
34924;SDS011;21130;51.728;8.748;2022-07-09T00:32:47;6.75;;;5.57;;
34924;SDS011;21130;51.728;8.748;2022-07-09T00:35:13;6.95;;;5.07;;
34924;SDS011;21130;51.728;8.748;2022-07-09T00:37:38;9.48;;;5.20;;
34924;SDS011;21130;51.728;8.748;2022-07-09T00:40:04;6.20;;;5.40;;
34924;SDS011;21130;51.728;8.748;2022-07-09T00:42:29;9.32;;;5.95;;
34924;SDS011;21130;51.728;8.748;2022-07-09T00:44:55;7.47;;;5.63;;
34924;SDS011;21130;51.728;8.748;2022-07-09T00:47:20;5.88;;;4.70;;
34924;SDS011;21130;51.728;8.748;2022-07-09T00:49:46;6.18;;;5.07;;
34924;SDS011;21130;51.728;8.748;2022-07-09T00:52:11;5.65;;;4.40;;
34924;SDS011;21130;51.728;8.748;2022-07-09T00:54:39;6.22;;;4.63;;
34924;SDS011;21130;51.728;8.748;2022-07-09T00:57:06;8.38;;;5.40;;
34924;SDS011;21130;51.728;8.748;2022-07-09T00:59:32;7.43;;;5.65;;
34924;SDS011;21130;51.728;8.748;2022-07-09T01:01:59;7.80;;;4.93;;
34924;SDS011;21130;51.728;8.748;2022-07-09T01:04:25;7.63;;;6.15;;
34924;SDS011;21130;51.728;8.748;2022-07-09T01:06:50;7.25;;;6.13;;
34924;SDS011;21130;51.728;8.748;2022-07-09T01:09:16;7.57;;;6.75;;
34924;SDS011;21130;51.728;8.748;2022-07-09T01:11:41;9.40;;;6.40;;
34924;SDS011;21130;51.728;8.748;2022-07-09T01:14:07;9.18;;;6.68;;
34924;SDS011;21130;51.728;8.748;2022-07-09T01:16:33;8.05;;;6.57;;
34924;SDS011;21130;51.728;8.748;2022-07-09T01:18:59;8.00;;;6.18;;
34924;SDS011;21130;51.728;8.748;2022-07-09T01:21:25;8.35;;;6.40;;
34924;SDS011;21130;51.728;8.748;2022-07-09T01:23:51;7.43;;;6.70;;
34924;SDS011;21130;51.728;8.748;2022-07-09T01:26:16;9.57;;;6.43;;
34924;SDS011;21130;51.728;8.748;2022-07-09T01:28:51;8.98;;;6.03;;
34924;SDS011;21130;51.728;8.748;2022-07-09T01:31:17;7.78;;;6.13;;
34924;SDS011;21130;51.728;8.748;2022-07-09T01:33:42;8.30;;;5.88;;
34924;SDS011;21130;51.728;8.748;2022-07-09T01:36:08;9.68;;;7.20;;
34924;SDS011;21130;51.728;8.748;2022-07-09T01:38:34;7.80;;;5.78;;
34924;SDS011;21130;51.728;8.748;2022-07-09T01:40:59;10.05;;;6.38;;
34924;SDS011;21130;51.728;8.748;2022-07-09T01:43:25;8.27;;;6.72;;
34924;SDS011;21130;51.728;8.748;2022-07-09T01:45:50;8.07;;;6.70;;
34924;SDS011;21130;51.728;8.748;2022-07-09T01:48:15;9.27;;;6.57;;
34924;SDS011;21130;51.728;8.748;2022-07-09T01:50:41;9.48;;;7.05;;
34924;SDS011;21130;51.728;8.748;2022-07-09T01:53:06;8.27;;;7.50;;
34924;SDS011;21130;51.728;8.748;2022-07-09T01:55:32;8.13;;;6.38;;
34924;SDS011;21130;51.728;8.748;2022-07-09T01:57:57;9.95;;;7.20;;
34924;SDS011;21130;51.728;8.748;2022-07-09T02:00:22;10.90;;;7.38;;
34924;SDS011;21130;51.728;8.748;2022-07-09T02:02:48;10.77;;;7.22;;
34924;SDS011;21130;51.728;8.748;2022-07-09T02:05:14;9.25;;;7.05;;
34924;SDS011;21130;51.728;8.748;2022-07-09T02:07:39;10.25;;;7.85;;
34924;SDS011;21130;51.728;8.748;2022-07-09T02:10:05;8.43;;;7.45;;
34924;SDS011;21130;51.728;8.748;2022-07-09T02:12:30;14.52;;;7.72;;
34924;SDS011;21130;51.728;8.748;2022-07-09T02:14:56;10.10;;;8.07;;
34924;SDS011;21130;51.728;8.748;2022-07-09T02:17:22;10.23;;;8.18;;
34924;SDS011;21130;51.728;8.748;2022-07-09T02:19:48;10.75;;;8.10;;
34924;SDS011;21130;51.728;8.748;2022-07-09T02:22:13;11.23;;;8.20;;
34924;SDS011;21130;51.728;8.748;2022-07-09T02:24:38;11.50;;;7.97;;
34924;SDS011;21130;51.728;8.748;2022-07-09T02:27:04;10.27;;;8.23;;
34924;SDS011;21130;51.728;8.748;2022-07-09T02:29:30;10.05;;;8.85;;
34924;SDS011;21130;51.728;8.748;2022-07-09T02:31:55;10.85;;;8.13;;
34924;SDS011;21130;51.728;8.748;2022-07-09T02:34:22;11.65;;;8.82;;
34924;SDS011;21130;51.728;8.748;2022-07-09T02:36:47;10.05;;;9.02;;
34924;SDS011;21130;51.728;8.748;2022-07-09T02:39:12;12.00;;;9.18;;
34924;SDS011;21130;51.728;8.748;2022-07-09T02:41:38;11.70;;;8.82;;
34924;SDS011;21130;51.728;8.748;2022-07-09T02:44:03;9.43;;;8.40;;
34924;SDS011;21130;51.728;8.748;2022-07-09T02:46:29;9.95;;;8.63;;
34924;SDS011;21130;51.728;8.748;2022-07-09T02:48:54;9.65;;;8.32;;
34924;SDS011;21130;51.728;8.748;2022-07-09T02:51:20;8.70;;;7.78;;
34924;SDS011;21130;51.728;8.748;2022-07-09T02:53:45;10.60;;;8.40;;
34924;SDS011;21130;51.728;8.748;2022-07-09T02:56:10;10.73;;;8.40;;
34924;SDS011;21130;51.728;8.748;2022-07-09T02:58:36;11.13;;;8.25;;
34924;SDS011;21130;51.728;8.748;2022-07-09T03:01:01;13.70;;;10.02;;
34924;SDS011;21130;51.728;8.748;2022-07-09T03:03:30;9.73;;;8.73;;
34924;SDS011;21130;51.728;8.748;2022-07-09T03:05:56;13.90;;;9.23;;
34924;SDS011;21130;51.728;8.748;2022-07-09T03:08:21;10.30;;;9.17;;
34924;SDS011;21130;51.728;8.748;2022-07-09T03:10:47;10.23;;;9.25;;
34924;SDS011;21130;51.728;8.748;2022-07-09T03:13:14;10.88;;;8.50;;
34924;SDS011;21130;51.728;8.748;2022-07-09T03:15:39;9.50;;;8.57;;
34924;SDS011;21130;51.728;8.748;2022-07-09T03:18:05;10.73;;;9.25;;
34924;SDS011;21130;51.728;8.748;2022-07-09T03:20:34;12.95;;;9.30;;
34924;SDS011;21130;51.728;8.748;2022-07-09T03:23:00;11.60;;;9.18;;
34924;SDS011;21130;51.728;8.748;2022-07-09T03:25:26;10.50;;;9.40;;
34924;SDS011;21130;51.728;8.748;2022-07-09T03:27:52;10.52;;;9.45;;
34924;SDS011;21130;51.728;8.748;2022-07-09T03:30:17;10.35;;;9.18;;
34924;SDS011;21130;51.728;8.748;2022-07-09T03:32:42;11.75;;;8.95;;
34924;SDS011;21130;51.728;8.748;2022-07-09T03:35:07;10.15;;;9.13;;
34924;SDS011;21130;51.728;8.748;2022-07-09T03:37:33;11.30;;;8.80;;
34924;SDS011;21130;51.728;8.748;2022-07-09T03:39:58;12.63;;;9.32;;
34924;SDS011;21130;51.728;8.748;2022-07-09T03:42:24;11.38;;;9.23;;
34924;SDS011;21130;51.728;8.748;2022-07-09T03:44:49;11.02;;;9.23;;
34924;SDS011;21130;51.728;8.748;2022-07-09T03:47:14;10.32;;;9.25;;
34924;SDS011;21130;51.728;8.748;2022-07-09T03:49:40;11.93;;;8.55;;
34924;SDS011;21130;51.728;8.748;2022-07-09T03:52:05;11.40;;;8.75;;
34924;SDS011;21130;51.728;8.748;2022-07-09T03:54:30;9.95;;;8.93;;
34924;SDS011;21130;51.728;8.748;2022-07-09T03:56:56;13.02;;;9.10;;
34924;SDS011;21130;51.728;8.748;2022-07-09T03:59:21;10.48;;;9.40;;
34924;SDS011;21130;51.728;8.748;2022-07-09T04:01:46;11.60;;;9.52;;
34924;SDS011;21130;51.728;8.748;2022-07-09T04:04:12;10.23;;;8.82;;
34924;SDS011;21130;51.728;8.748;2022-07-09T04:06:37;11.02;;;9.10;;
34924;SDS011;21130;51.728;8.748;2022-07-09T04:09:02;11.90;;;9.65;;
34924;SDS011;21130;51.728;8.748;2022-07-09T04:11:32;10.75;;;9.32;;
34924;SDS011;21130;51.728;8.748;2022-07-09T04:13:58;10.82;;;9.48;;
34924;SDS011;21130;51.728;8.748;2022-07-09T04:16:25;13.30;;;9.07;;
34924;SDS011;21130;51.728;8.748;2022-07-09T04:18:50;11.80;;;9.30;;
34924;SDS011;21130;51.728;8.748;2022-07-09T04:21:15;13.40;;;8.98;;
34924;SDS011;21130;51.728;8.748;2022-07-09T04:23:42;10.18;;;9.18;;
34924;SDS011;21130;51.728;8.748;2022-07-09T04:26:08;12.27;;;10.20;;
34924;SDS011;21130;51.728;8.748;2022-07-09T04:28:35;12.65;;;9.80;;
34924;SDS011;21130;51.728;8.748;2022-07-09T04:31:01;13.63;;;9.40;;
34924;SDS011;21130;51.728;8.748;2022-07-09T04:33:26;11.95;;;9.63;;
34924;SDS011;21130;51.728;8.748;2022-07-09T04:35:52;11.15;;;9.23;;
34924;SDS011;21130;51.728;8.748;2022-07-09T04:38:17;10.85;;;8.80;;
34924;SDS011;21130;51.728;8.748;2022-07-09T04:40:43;11.15;;;10.05;;
34924;SDS011;21130;51.728;8.748;2022-07-09T04:43:08;10.77;;;9.48;;
34924;SDS011;21130;51.728;8.748;2022-07-09T04:45:33;12.60;;;9.68;;
34924;SDS011;21130;51.728;8.748;2022-07-09T04:47:59;14.95;;;10.35;;
34924;SDS011;21130;51.728;8.748;2022-07-09T04:50:25;14.35;;;10.55;;
34924;SDS011;21130;51.728;8.748;2022-07-09T04:52:51;10.95;;;9.48;;
34924;SDS011;21130;51.728;8.748;2022-07-09T04:55:16;11.82;;;10.00;;
34924;SDS011;21130;51.728;8.748;2022-07-09T04:57:42;12.23;;;9.25;;
34924;SDS011;21130;51.728;8.748;2022-07-09T05:00:08;13.00;;;10.10;;
34924;SDS011;21130;51.728;8.748;2022-07-09T05:02:35;11.27;;;9.35;;
34924;SDS011;21130;51.728;8.748;2022-07-09T05:05:01;11.48;;;9.52;;
34924;SDS011;21130;51.728;8.748;2022-07-09T05:07:28;11.52;;;9.35;;
34924;SDS011;21130;51.728;8.748;2022-07-09T05:09:54;13.65;;;9.88;;
34924;SDS011;21130;51.728;8.748;2022-07-09T05:12:19;10.02;;;9.02;;
34924;SDS011;21130;51.728;8.748;2022-07-09T05:14:45;11.85;;;9.13;;
34924;SDS011;21130;51.728;8.748;2022-07-09T05:17:10;14.77;;;10.65;;
34924;SDS011;21130;51.728;8.748;2022-07-09T05:19:36;10.70;;;9.07;;
34924;SDS011;21130;51.728;8.748;2022-07-09T05:22:01;11.27;;;9.30;;
34924;SDS011;21130;51.728;8.748;2022-07-09T05:24:26;11.40;;;9.30;;
34924;SDS011;21130;51.728;8.748;2022-07-09T05:26:52;9.63;;;8.60;;
34924;SDS011;21130;51.728;8.748;2022-07-09T05:29:17;11.00;;;9.93;;
34924;SDS011;21130;51.728;8.748;2022-07-09T05:31:43;10.48;;;9.38;;
34924;SDS011;21130;51.728;8.748;2022-07-09T05:34:08;10.48;;;9.13;;
34924;SDS011;21130;51.728;8.748;2022-07-09T05:36:33;13.15;;;9.35;;
34924;SDS011;21130;51.728;8.748;2022-07-09T05:39:18;11.95;;;9.40;;
34924;SDS011;21130;51.728;8.748;2022-07-09T05:42:02;11.15;;;9.32;;
34924;SDS011;21130;51.728;8.748;2022-07-09T05:44:28;13.15;;;11.00;;
34924;SDS011;21130;51.728;8.748;2022-07-09T05:46:53;19.88;;;12.32;;
34924;SDS011;21130;51.728;8.748;2022-07-09T05:49:19;15.77;;;11.13;;
34924;SDS011;21130;51.728;8.748;2022-07-09T05:51:44;13.82;;;11.07;;
34924;SDS011;21130;51.728;8.748;2022-07-09T05:54:09;13.20;;;11.27;;
34924;SDS011;21130;51.728;8.748;2022-07-09T05:56:35;12.63;;;10.95;;
34924;SDS011;21130;51.728;8.748;2022-07-09T05:59:02;14.23;;;11.10;;
34924;SDS011;21130;51.728;8.748;2022-07-09T06:01:30;13.38;;;9.98;;
34924;SDS011;21130;51.728;8.748;2022-07-09T06:03:55;10.35;;;9.30;;
34924;SDS011;21130;51.728;8.748;2022-07-09T06:06:21;11.38;;;10.18;;
34924;SDS011;21130;51.728;8.748;2022-07-09T06:08:47;11.15;;;9.98;;
34924;SDS011;21130;51.728;8.748;2022-07-09T06:11:12;11.77;;;9.23;;
34924;SDS011;21130;51.728;8.748;2022-07-09T06:13:38;12.20;;;8.35;;
34924;SDS011;21130;51.728;8.748;2022-07-09T06:16:03;10.85;;;9.00;;
34924;SDS011;21130;51.728;8.748;2022-07-09T06:18:29;11.15;;;8.50;;
34924;SDS011;21130;51.728;8.748;2022-07-09T06:20:55;12.50;;;8.75;;
34924;SDS011;21130;51.728;8.748;2022-07-09T06:23:20;10.55;;;8.52;;
34924;SDS011;21130;51.728;8.748;2022-07-09T06:25:46;9.32;;;8.38;;
34924;SDS011;21130;51.728;8.748;2022-07-09T06:28:12;9.15;;;8.25;;
34924;SDS011;21130;51.728;8.748;2022-07-09T06:30:37;9.35;;;7.70;;
34924;SDS011;21130;51.728;8.748;2022-07-09T06:33:02;12.60;;;8.18;;
34924;SDS011;21130;51.728;8.748;2022-07-09T06:35:28;9.63;;;8.15;;
34924;SDS011;21130;51.728;8.748;2022-07-09T06:37:53;11.50;;;7.38;;
34924;SDS011;21130;51.728;8.748;2022-07-09T06:40:18;8.40;;;7.22;;
34924;SDS011;21130;51.728;8.748;2022-07-09T06:42:44;8.75;;;7.03;;
34924;SDS011;21130;51.728;8.748;2022-07-09T06:45:09;8.35;;;6.93;;
34924;SDS011;21130;51.728;8.748;2022-07-09T06:47:35;10.65;;;6.95;;
34924;SDS011;21130;51.728;8.748;2022-07-09T06:50:00;8.52;;;7.53;;
34924;SDS011;21130;51.728;8.748;2022-07-09T06:52:26;8.68;;;6.93;;
34924;SDS011;21130;51.728;8.748;2022-07-09T06:54:52;9.07;;;6.78;;
34924;SDS011;21130;51.728;8.748;2022-07-09T06:57:17;7.82;;;6.15;;
34924;SDS011;21130;51.728;8.748;2022-07-09T06:59:43;7.60;;;6.10;;
34924;SDS011;21130;51.728;8.748;2022-07-09T07:02:10;7.72;;;6.30;;
34924;SDS011;21130;51.728;8.748;2022-07-09T07:04:36;9.95;;;6.10;;
34924;SDS011;21130;51.728;8.748;2022-07-09T07:07:01;8.30;;;5.30;;
34924;SDS011;21130;51.728;8.748;2022-07-09T07:09:27;6.93;;;5.03;;
34924;SDS011;21130;51.728;8.748;2022-07-09T07:11:53;5.90;;;4.82;;
34924;SDS011;21130;51.728;8.748;2022-07-09T07:14:19;5.78;;;4.80;;
34924;SDS011;21130;51.728;8.748;2022-07-09T07:16:44;6.55;;;4.22;;
34924;SDS011;21130;51.728;8.748;2022-07-09T07:19:12;7.90;;;5.03;;
34924;SDS011;21130;51.728;8.748;2022-07-09T07:21:38;8.15;;;4.82;;
34924;SDS011;21130;51.728;8.748;2022-07-09T07:24:07;6.57;;;4.20;;
34924;SDS011;21130;51.728;8.748;2022-07-09T07:26:33;7.70;;;4.93;;
34924;SDS011;21130;51.728;8.748;2022-07-09T07:28:59;6.50;;;4.93;;
34924;SDS011;21130;51.728;8.748;2022-07-09T07:31:24;4.45;;;3.83;;
34924;SDS011;21130;51.728;8.748;2022-07-09T07:33:50;7.82;;;4.15;;
34924;SDS011;21130;51.728;8.748;2022-07-09T07:36:16;6.75;;;3.85;;
34924;SDS011;21130;51.728;8.748;2022-07-09T07:38:43;5.28;;;3.55;;
34924;SDS011;21130;51.728;8.748;2022-07-09T07:41:13;6.20;;;4.22;;
34924;SDS011;21130;51.728;8.748;2022-07-09T07:43:38;4.30;;;3.30;;
34924;SDS011;21130;51.728;8.748;2022-07-09T07:46:22;4.05;;;3.47;;
34924;SDS011;21130;51.728;8.748;2022-07-09T07:48:53;4.32;;;3.58;;
34924;SDS011;21130;51.728;8.748;2022-07-09T07:51:18;5.43;;;3.83;;
34924;SDS011;21130;51.728;8.748;2022-07-09T07:53:43;3.72;;;3.20;;
34924;SDS011;21130;51.728;8.748;2022-07-09T07:56:08;5.90;;;3.30;;
34924;SDS011;21130;51.728;8.748;2022-07-09T07:58:34;6.63;;;3.42;;
34924;SDS011;21130;51.728;8.748;2022-07-09T08:01:00;4.15;;;2.97;;
34924;SDS011;21130;51.728;8.748;2022-07-09T08:03:26;3.97;;;3.08;;
34924;SDS011;21130;51.728;8.748;2022-07-09T08:05:51;3.95;;;3.08;;
34924;SDS011;21130;51.728;8.748;2022-07-09T08:08:17;4.22;;;3.20;;
34924;SDS011;21130;51.728;8.748;2022-07-09T08:10:46;4.40;;;2.72;;
34924;SDS011;21130;51.728;8.748;2022-07-09T08:13:13;4.95;;;2.70;;
34924;SDS011;21130;51.728;8.748;2022-07-09T08:15:39;3.92;;;2.80;;
34924;SDS011;21130;51.728;8.748;2022-07-09T08:18:04;5.75;;;2.88;;
34924;SDS011;21130;51.728;8.748;2022-07-09T08:20:31;3.38;;;2.28;;
34924;SDS011;21130;51.728;8.748;2022-07-09T08:22:56;3.45;;;2.65;;
34924;SDS011;21130;51.728;8.748;2022-07-09T08:25:21;3.40;;;2.22;;
34924;SDS011;21130;51.728;8.748;2022-07-09T08:27:46;5.88;;;2.90;;
34924;SDS011;21130;51.728;8.748;2022-07-09T08:30:14;5.15;;;2.45;;
34924;SDS011;21130;51.728;8.748;2022-07-09T08:32:39;4.65;;;2.88;;
34924;SDS011;21130;51.728;8.748;2022-07-09T08:35:05;3.35;;;2.50;;
34924;SDS011;21130;51.728;8.748;2022-07-09T08:37:31;2.72;;;2.08;;
34924;SDS011;21130;51.728;8.748;2022-07-09T08:39:56;2.63;;;2.35;;
34924;SDS011;21130;51.728;8.748;2022-07-09T08:42:21;3.08;;;2.33;;
34924;SDS011;21130;51.728;8.748;2022-07-09T08:44:47;4.88;;;2.25;;
34924;SDS011;21130;51.728;8.748;2022-07-09T08:47:16;3.25;;;2.10;;
34924;SDS011;21130;51.728;8.748;2022-07-09T08:49:41;2.65;;;1.90;;
34924;SDS011;21130;51.728;8.748;2022-07-09T08:52:08;3.58;;;2.40;;
34924;SDS011;21130;51.728;8.748;2022-07-09T08:54:35;5.53;;;2.33;;
34924;SDS011;21130;51.728;8.748;2022-07-09T08:57:04;3.95;;;2.22;;
34924;SDS011;21130;51.728;8.748;2022-07-09T08:59:30;2.58;;;1.92;;
34924;SDS011;21130;51.728;8.748;2022-07-09T09:01:56;4.47;;;2.10;;
34924;SDS011;21130;51.728;8.748;2022-07-09T09:04:22;4.68;;;1.90;;
34924;SDS011;21130;51.728;8.748;2022-07-09T09:06:48;2.55;;;2.00;;
34924;SDS011;21130;51.728;8.748;2022-07-09T09:09:18;3.88;;;2.00;;
34924;SDS011;21130;51.728;8.748;2022-07-09T09:11:46;3.63;;;2.20;;
34924;SDS011;21130;51.728;8.748;2022-07-09T09:14:20;2.45;;;2.00;;
34924;SDS011;21130;51.728;8.748;2022-07-09T09:16:46;5.30;;;2.47;;
34924;SDS011;21130;51.728;8.748;2022-07-09T09:19:11;3.90;;;2.50;;
34924;SDS011;21130;51.728;8.748;2022-07-09T09:21:37;2.85;;;2.25;;
34924;SDS011;21130;51.728;8.748;2022-07-09T09:24:03;3.92;;;2.33;;
34924;SDS011;21130;51.728;8.748;2022-07-09T09:26:28;4.20;;;2.30;;
34924;SDS011;21130;51.728;8.748;2022-07-09T09:28:58;3.92;;;2.30;;
34924;SDS011;21130;51.728;8.748;2022-07-09T09:36:30;3.70;;;2.25;;
34924;SDS011;21130;51.728;8.748;2022-07-09T09:41:53;3.90;;;2.17;;
34924;SDS011;21130;51.728;8.748;2022-07-09T09:44:20;4.82;;;2.38;;
34924;SDS011;21130;51.728;8.748;2022-07-09T09:46:51;5.40;;;2.45;;
34924;SDS011;21130;51.728;8.748;2022-07-09T09:49:17;3.85;;;2.67;;
34924;SDS011;21130;51.728;8.748;2022-07-09T09:51:45;4.20;;;2.60;;
34924;SDS011;21130;51.728;8.748;2022-07-09T09:54:17;3.60;;;2.90;;
34924;SDS011;21130;51.728;8.748;2022-07-09T09:56:44;3.78;;;2.70;;
34924;SDS011;21130;51.728;8.748;2022-07-09T09:59:10;6.60;;;2.97;;
34924;SDS011;21130;51.728;8.748;2022-07-09T10:01:37;2.40;;;2.20;;
34924;SDS011;21130;51.728;8.748;2022-07-09T10:04:03;3.38;;;2.70;;
34924;SDS011;21130;51.728;8.748;2022-07-09T10:06:28;5.75;;;2.33;;
34924;SDS011;21130;51.728;8.748;2022-07-09T10:08:54;3.42;;;2.40;;
34924;SDS011;21130;51.728;8.748;2022-07-09T10:11:21;4.22;;;2.63;;
34924;SDS011;21130;51.728;8.748;2022-07-09T10:13:50;4.10;;;2.92;;
34924;SDS011;21130;51.728;8.748;2022-07-09T10:16:31;3.17;;;2.40;;
34924;SDS011;21130;51.728;8.748;2022-07-09T10:18:57;3.25;;;2.55;;
34924;SDS011;21130;51.728;8.748;2022-07-09T10:24:08;3.97;;;2.47;;
34924;SDS011;21130;51.728;8.748;2022-07-09T10:26:38;3.38;;;2.15;;
34924;SDS011;21130;51.728;8.748;2022-07-09T10:31:49;2.83;;;1.88;;
34924;SDS011;21130;51.728;8.748;2022-07-09T10:34:21;3.00;;;2.42;;
34924;SDS011;21130;51.728;8.748;2022-07-09T10:36:59;2.40;;;1.75;;
34924;SDS011;21130;51.728;8.748;2022-07-09T10:39:28;2.40;;;1.90;;
34924;SDS011;21130;51.728;8.748;2022-07-09T10:41:58;2.97;;;1.80;;
34924;SDS011;21130;51.728;8.748;2022-07-09T10:44:28;3.63;;;1.85;;
34924;SDS011;21130;51.728;8.748;2022-07-09T10:46:58;2.75;;;1.75;;
34924;SDS011;21130;51.728;8.748;2022-07-09T10:49:24;3.13;;;1.70;;
34924;SDS011;21130;51.728;8.748;2022-07-09T10:51:54;2.50;;;1.80;;
34924;SDS011;21130;51.728;8.748;2022-07-09T10:54:21;2.58;;;1.40;;
34924;SDS011;21130;51.728;8.748;2022-07-09T10:56:46;3.05;;;1.55;;
34924;SDS011;21130;51.728;8.748;2022-07-09T10:59:15;2.70;;;1.42;;
34924;SDS011;21130;51.728;8.748;2022-07-09T11:01:43;2.88;;;1.33;;
34924;SDS011;21130;51.728;8.748;2022-07-09T11:04:08;2.95;;;1.40;;
34924;SDS011;21130;51.728;8.748;2022-07-09T11:06:43;1.70;;;1.30;;
34924;SDS011;21130;51.728;8.748;2022-07-09T11:09:15;1.40;;;1.20;;
34924;SDS011;21130;51.728;8.748;2022-07-09T11:11:41;3.22;;;1.52;;
34924;SDS011;21130;51.728;8.748;2022-07-09T11:14:08;1.77;;;1.60;;
34924;SDS011;21130;51.728;8.748;2022-07-09T11:16:34;1.55;;;1.33;;
34924;SDS011;21130;51.728;8.748;2022-07-09T11:19:00;1.85;;;1.42;;
34924;SDS011;21130;51.728;8.748;2022-07-09T11:21:40;4.03;;;3.63;;
34924;SDS011;21130;51.728;8.748;2022-07-09T11:24:19;1.40;;;1.30;;
34924;SDS011;21130;51.728;8.748;2022-07-09T11:26:47;2.13;;;1.60;;
34924;SDS011;21130;51.728;8.748;2022-07-09T11:29:12;2.35;;;2.15;;
34924;SDS011;21130;51.728;8.748;2022-07-09T11:31:48;1.88;;;1.60;;
34924;SDS011;21130;51.728;8.748;2022-07-09T11:34:15;3.90;;;3.50;;
34924;SDS011;21130;51.728;8.748;2022-07-09T11:36:45;2.03;;;1.52;;
34924;SDS011;21130;51.728;8.748;2022-07-09T11:39:32;5.72;;;4.18;;
34924;SDS011;21130;51.728;8.748;2022-07-09T11:41:59;2.28;;;1.63;;
34924;SDS011;21130;51.728;8.748;2022-07-09T11:44:26;2.08;;;1.67;;
34924;SDS011;21130;51.728;8.748;2022-07-09T11:47:02;2.38;;;1.85;;
34924;SDS011;21130;51.728;8.748;2022-07-09T11:49:53;2.50;;;1.60;;
34924;SDS011;21130;51.728;8.748;2022-07-09T11:52:30;3.20;;;1.50;;
34924;SDS011;21130;51.728;8.748;2022-07-09T11:55:00;2.80;;;2.15;;
34924;SDS011;21130;51.728;8.748;2022-07-09T11:57:27;2.42;;;1.60;;
34924;SDS011;21130;51.728;8.748;2022-07-09T11:59:54;1.67;;;1.42;;
34924;SDS011;21130;51.728;8.748;2022-07-09T12:02:26;3.53;;;1.80;;
34924;SDS011;21130;51.728;8.748;2022-07-09T12:04:53;3.22;;;2.47;;
34924;SDS011;21130;51.728;8.748;2022-07-09T12:07:19;3.05;;;2.30;;
34924;SDS011;21130;51.728;8.748;2022-07-09T12:09:44;2.78;;;2.30;;
34924;SDS011;21130;51.728;8.748;2022-07-09T12:12:10;3.15;;;2.50;;
34924;SDS011;21130;51.728;8.748;2022-07-09T12:14:35;3.47;;;2.35;;
34924;SDS011;21130;51.728;8.748;2022-07-09T12:17:00;2.17;;;1.90;;
34924;SDS011;21130;51.728;8.748;2022-07-09T12:19:26;4.25;;;2.30;;
34924;SDS011;21130;51.728;8.748;2022-07-09T12:21:51;1.65;;;1.40;;
34924;SDS011;21130;51.728;8.748;2022-07-09T12:24:17;3.20;;;1.80;;
34924;SDS011;21130;51.728;8.748;2022-07-09T12:26:46;1.83;;;1.33;;
34924;SDS011;21130;51.728;8.748;2022-07-09T12:29:11;1.55;;;1.45;;
34924;SDS011;21130;51.728;8.748;2022-07-09T12:31:37;1.73;;;1.63;;
34924;SDS011;21130;51.728;8.748;2022-07-09T12:34:03;1.95;;;1.50;;
34924;SDS011;21130;51.728;8.748;2022-07-09T12:36:30;2.00;;;1.80;;
34924;SDS011;21130;51.728;8.748;2022-07-09T12:38:56;2.00;;;1.70;;
34924;SDS011;21130;51.728;8.748;2022-07-09T12:41:21;2.03;;;1.83;;
34924;SDS011;21130;51.728;8.748;2022-07-09T12:43:46;2.03;;;1.40;;
34924;SDS011;21130;51.728;8.748;2022-07-09T12:46:11;1.40;;;1.30;;
34924;SDS011;21130;51.728;8.748;2022-07-09T12:48:37;2.05;;;1.55;;
34924;SDS011;21130;51.728;8.748;2022-07-09T12:51:03;1.90;;;1.30;;
34924;SDS011;21130;51.728;8.748;2022-07-09T12:53:28;2.72;;;1.48;;
34924;SDS011;21130;51.728;8.748;2022-07-09T12:55:53;2.08;;;1.30;;
34924;SDS011;21130;51.728;8.748;2022-07-09T12:58:18;3.55;;;1.42;;
34924;SDS011;21130;51.728;8.748;2022-07-09T13:00:44;3.60;;;1.50;;
34924;SDS011;21130;51.728;8.748;2022-07-09T13:03:09;1.60;;;1.20;;
34924;SDS011;21130;51.728;8.748;2022-07-09T13:05:35;2.45;;;1.60;;
34924;SDS011;21130;51.728;8.748;2022-07-09T13:08:00;3.92;;;1.63;;
34924;SDS011;21130;51.728;8.748;2022-07-09T13:10:26;2.17;;;1.80;;
34924;SDS011;21130;51.728;8.748;2022-07-09T13:12:51;1.75;;;1.58;;
34924;SDS011;21130;51.728;8.748;2022-07-09T13:15:16;1.40;;;1.30;;
34924;SDS011;21130;51.728;8.748;2022-07-09T13:17:47;3.40;;;1.70;;
34924;SDS011;21130;51.728;8.748;2022-07-09T13:20:12;2.90;;;1.90;;
34924;SDS011;21130;51.728;8.748;2022-07-09T13:22:38;1.75;;;1.50;;
34924;SDS011;21130;51.728;8.748;2022-07-09T13:25:03;1.40;;;1.10;;
34924;SDS011;21130;51.728;8.748;2022-07-09T13:27:29;2.03;;;1.70;;
34924;SDS011;21130;51.728;8.748;2022-07-09T13:29:56;2.03;;;1.35;;
34924;SDS011;21130;51.728;8.748;2022-07-09T13:32:21;2.40;;;1.65;;
34924;SDS011;21130;51.728;8.748;2022-07-09T13:34:46;1.48;;;1.38;;
34924;SDS011;21130;51.728;8.748;2022-07-09T13:37:12;1.63;;;1.48;;
34924;SDS011;21130;51.728;8.748;2022-07-09T13:39:37;2.25;;;1.70;;
34924;SDS011;21130;51.728;8.748;2022-07-09T13:42:03;1.52;;;1.42;;
34924;SDS011;21130;51.728;8.748;2022-07-09T13:44:28;3.38;;;1.98;;
34924;SDS011;21130;51.728;8.748;2022-07-09T13:46:53;2.28;;;1.80;;
34924;SDS011;21130;51.728;8.748;2022-07-09T13:49:19;3.30;;;1.70;;
34924;SDS011;21130;51.728;8.748;2022-07-09T13:51:44;2.47;;;1.60;;
34924;SDS011;21130;51.728;8.748;2022-07-09T13:54:10;3.40;;;1.23;;
34924;SDS011;21130;51.728;8.748;2022-07-09T13:56:35;1.33;;;1.23;;
34924;SDS011;21130;51.728;8.748;2022-07-09T13:59:00;2.42;;;1.25;;
34924;SDS011;21130;51.728;8.748;2022-07-09T14:01:26;2.90;;;1.35;;
34924;SDS011;21130;51.728;8.748;2022-07-09T14:03:51;1.65;;;1.15;;
34924;SDS011;21130;51.728;8.748;2022-07-09T14:06:16;1.67;;;1.38;;
34924;SDS011;21130;51.728;8.748;2022-07-09T14:08:42;2.05;;;1.45;;
34924;SDS011;21130;51.728;8.748;2022-07-09T14:11:07;1.60;;;1.25;;
34924;SDS011;21130;51.728;8.748;2022-07-09T14:13:32;1.00;;;1.00;;
34924;SDS011;21130;51.728;8.748;2022-07-09T14:15:58;1.02;;;0.93;;
34924;SDS011;21130;51.728;8.748;2022-07-09T14:18:24;1.23;;;1.10;;
34924;SDS011;21130;51.728;8.748;2022-07-09T14:20:49;1.25;;;0.73;;
34924;SDS011;21130;51.728;8.748;2022-07-09T14:23:15;1.08;;;0.80;;
34924;SDS011;21130;51.728;8.748;2022-07-09T14:25:40;0.88;;;0.73;;
34924;SDS011;21130;51.728;8.748;2022-07-09T14:28:08;0.77;;;0.77;;
34924;SDS011;21130;51.728;8.748;2022-07-09T14:30:33;1.83;;;0.90;;
34924;SDS011;21130;51.728;8.748;2022-07-09T14:32:58;0.88;;;0.88;;
34924;SDS011;21130;51.728;8.748;2022-07-09T14:35:26;1.30;;;0.90;;
34924;SDS011;21130;51.728;8.748;2022-07-09T14:37:52;2.55;;;0.77;;
34924;SDS011;21130;51.728;8.748;2022-07-09T14:40:17;0.82;;;0.80;;
34924;SDS011;21130;51.728;8.748;2022-07-09T14:42:42;1.40;;;0.80;;
34924;SDS011;21130;51.728;8.748;2022-07-09T14:45:08;2.15;;;0.70;;
34924;SDS011;21130;51.728;8.748;2022-07-09T14:47:34;1.60;;;0.70;;
34924;SDS011;21130;51.728;8.748;2022-07-09T14:49:59;1.20;;;1.02;;
34924;SDS011;21130;51.728;8.748;2022-07-09T14:52:25;1.73;;;0.95;;